Time;durP1;ratioP1;P1;durP2;ratioP2;P2;SDS_P1;SDS_P2;PMS_P1;PMS_P2;Temp;Humidity;BMP_temperature;BMP_pressure;BME280_temperature;BME280_humidity;BME280_pressure;Samples;Min_cycle;Max_cycle;Signal;HPM_P1;HPM_P2
2023/04/14 00:00:50;;;;;;;7.97;5.43;;;;;;;13.20;62.76;98882.94;5085583;28;20031;-67
2023/04/14 00:03:16;;;;;;;6.18;4.60;;;;;;;12.98;62.84;98847.00;5067498;28;20089;-67
2023/04/14 00:05:42;;;;;;;9.50;5.85;;;;;;;13.06;62.90;98854.16;5084184;28;20044;-67
2023/04/14 00:08:07;;;;;;;9.00;5.95;;;;;;;13.18;62.32;98877.72;5085791;28;20055;-67
2023/04/14 00:10:33;;;;;;;6.57;5.38;;;;;;;13.02;63.08;98859.06;5085409;28;20032;-67
2023/04/14 00:13:00;;;;;;;6.75;5.30;;;;;;;13.15;62.63;98877.25;5085592;28;20069;-67
2023/04/14 00:15:25;;;;;;;9.13;5.38;;;;;;;13.06;63.10;98865.75;5085201;28;20047;-67
2023/04/14 00:17:51;;;;;;;9.02;5.57;;;;;;;13.13;62.66;98874.75;5081180;28;20023;-68
2023/04/14 00:20:17;;;;;;;7.95;5.72;;;;;;;12.93;62.57;98844.00;5085127;28;20040;-67
2023/04/14 00:22:42;;;;;;;7.43;5.32;;;;;;;13.13;62.48;98865.84;5084554;28;20389;-67
2023/04/14 00:25:08;;;;;;;7.55;5.70;;;;;;;13.10;62.44;98874.31;5084421;28;20713;-67
2023/04/14 00:27:34;;;;;;;6.78;5.32;;;;;;;13.12;62.42;98866.84;5085293;28;20027;-67
2023/04/14 00:29:59;;;;;;;7.35;5.57;;;;;;;13.04;62.25;98859.75;5085129;28;20030;-67
2023/04/14 00:32:25;;;;;;;8.23;5.10;;;;;;;13.07;62.09;98855.81;5066061;28;20391;-67
2023/04/14 00:34:50;;;;;;;8.07;5.05;;;;;;;13.03;62.66;98849.16;5082214;28;20028;-67
2023/04/14 00:37:16;;;;;;;7.05;5.18;;;;;;;12.98;62.16;98828.16;5085293;28;20042;-66
2023/04/14 00:39:41;;;;;;;5.45;4.93;;;;;;;12.98;62.54;98833.53;5084251;28;20034;-68
2023/04/14 00:42:07;;;;;;;8.88;5.90;;;;;;;12.98;62.23;98841.59;5085070;28;20035;-67
2023/04/14 00:44:32;;;;;;;7.40;5.50;;;;;;;12.95;62.66;98838.44;5085171;28;20479;-67
2023/04/14 00:47:00;;;;;;;6.57;5.03;;;;;;;12.91;62.81;98840.69;5084834;28;20119;-67
2023/04/14 00:49:26;;;;;;;7.18;4.93;;;;;;;12.92;62.43;98841.50;5066254;28;20028;-67
2023/04/14 00:51:52;;;;;;;7.10;5.13;;;;;;;12.82;62.92;98827.47;5066004;28;20155;-67
2023/04/14 00:54:18;;;;;;;7.82;5.90;;;;;;;12.86;62.38;98840.38;5066879;28;20044;-67
2023/04/14 00:56:46;;;;;;;5.80;4.90;;;;;;;12.74;62.71;98809.56;5084110;28;20103;-68
2023/04/14 00:59:12;;;;;;;6.70;4.80;;;;;;;12.81;63.04;98820.44;5084325;28;20055;-67
2023/04/14 01:01:39;;;;;;;6.05;4.90;;;;;;;12.80;63.25;98811.53;5081984;28;20110;-67
2023/04/14 01:04:05;;;;;;;6.20;5.03;;;;;;;12.65;63.48;98796.41;5084688;28;20486;-67
2023/04/14 01:06:31;;;;;;;6.90;5.32;;;;;;;12.72;63.20;98794.66;5085276;28;20036;-67
2023/04/14 01:08:57;;;;;;;7.57;4.95;;;;;;;12.68;63.12;98777.22;5083996;28;20036;-67
2023/04/14 01:11:53;;;;;;;6.80;4.50;;;;;;;12.62;63.54;98773.41;5084895;28;20380;-67
2023/04/14 01:14:33;;;;;;;8.75;5.22;;;;;;;12.67;63.79;98787.13;5084764;28;20503;-67
2023/04/14 01:17:26;;;;;;;7.82;4.82;;;;;;;12.75;63.29;98796.97;5084417;28;20021;-67
2023/04/14 01:20:07;;;;;;;7.53;5.53;;;;;;;12.74;63.19;98803.38;5083773;28;20028;-67
2023/04/14 01:22:37;;;;;;;5.93;4.63;;;;;;;12.47;63.76;98777.09;5065685;28;20036;-67
2023/04/14 01:25:05;;;;;;;7.63;5.50;;;;;;;12.65;63.69;98801.78;5084438;28;20040;-67
2023/04/14 01:27:34;;;;;;;6.63;5.45;;;;;;;12.64;64.18;98805.50;5084925;28;20054;-67
2023/04/14 01:30:00;;;;;;;6.00;5.38;;;;;;;12.62;64.55;98813.75;5064048;28;20024;-67
2023/04/14 01:32:29;;;;;;;8.13;5.75;;;;;;;12.59;64.40;98815.97;5086313;28;20039;-67
2023/04/14 01:35:07;;;;;;;6.65;5.40;;;;;;;12.55;64.95;98810.16;5083687;28;20433;-67
2023/04/14 01:37:39;;;;;;;6.60;4.93;;;;;;;12.52;64.48;98818.56;5085506;28;20777;-67
2023/04/14 01:40:12;;;;;;;6.03;5.43;;;;;;;12.51;64.83;98808.00;5088349;28;20028;-67
2023/04/14 01:42:45;;;;;;;7.85;5.38;;;;;;;12.56;64.90;98810.94;5088044;28;20076;-67
2023/04/14 01:45:35;;;;;;;7.15;5.63;;;;;;;12.48;65.11;98794.91;5088547;28;20513;-67
2023/04/14 01:48:02;;;;;;;9.20;5.85;;;;;;;12.37;64.97;98773.84;5089074;28;20036;-67
2023/04/14 01:50:28;;;;;;;7.45;5.38;;;;;;;12.54;64.71;98799.56;5093266;28;20043;-67
2023/04/14 01:52:54;;;;;;;7.40;5.50;;;;;;;12.53;64.73;98803.25;5092502;28;20054;-67
2023/04/14 01:55:22;;;;;;;9.82;5.25;;;;;;;12.36;65.43;98785.63;5092113;28;20547;-70
2023/04/14 01:57:52;;;;;;;7.97;5.47;;;;;;;12.37;65.36;98774.69;5089376;28;20467;-70
2023/04/14 02:00:19;;;;;;;10.05;6.13;;;;;;;12.33;65.58;98775.22;5074855;28;20074;-70
2023/04/14 02:02:47;;;;;;;6.70;5.35;;;;;;;12.41;65.70;98788.63;5092901;28;20052;-69
2023/04/14 02:05:15;;;;;;;9.48;6.22;;;;;;;12.40;65.85;98793.16;5090014;28;20028;-68
2023/04/14 02:07:41;;;;;;;7.25;5.32;;;;;;;12.17;66.16;98768.16;5087174;28;20380;-70
2023/04/14 02:10:11;;;;;;;7.50;5.80;;;;;;;12.40;66.40;98794.97;5094291;28;20064;-70
2023/04/14 02:12:40;;;;;;;11.38;5.93;;;;;;;12.39;66.32;98794.16;5071138;28;20111;-69
2023/04/14 02:15:12;;;;;;;9.07;6.10;;;;;;;12.28;66.80;98785.72;5087728;28;20044;-70
2023/04/14 02:17:39;;;;;;;7.20;5.82;;;;;;;12.31;67.31;98788.00;5087599;28;20028;-69
2023/04/14 02:20:11;;;;;;;8.05;6.32;;;;;;;12.28;67.29;98766.91;5088130;28;20047;-69
2023/04/14 02:22:37;;;;;;;8.98;5.85;;;;;;;12.09;67.53;98746.72;5085288;28;20359;-69
2023/04/14 02:25:03;;;;;;;13.35;6.15;;;;;;;12.25;67.98;98759.19;5087665;28;20040;-70
2023/04/14 02:27:34;;;;;;;8.70;6.00;;;;;;;12.25;67.66;98751.13;5069705;28;20036;-70
2023/04/14 02:30:10;;;;;;;7.75;6.45;;;;;;;12.27;67.61;98746.41;5066639;28;20123;-70
2023/04/14 02:32:40;;;;;;;7.22;5.15;;;;;;;12.34;67.37;98741.94;5088418;28;20031;-69
2023/04/14 02:35:12;;;;;;;8.23;5.78;;;;;;;12.23;68.21;98731.66;5069704;28;20056;-69
2023/04/14 02:37:42;;;;;;;8.60;6.03;;;;;;;12.21;68.40;98725.63;5087799;28;20050;-70
2023/04/14 02:40:15;;;;;;;7.45;5.65;;;;;;;12.25;68.26;98738.50;5087567;28;20499;-69
2023/04/14 02:42:45;;;;;;;10.97;6.43;;;;;;;12.24;67.92;98719.88;5087326;28;20024;-69
2023/04/14 02:45:20;;;;;;;7.40;5.57;;;;;;;12.21;68.47;98709.50;5085057;28;20062;-69
2023/04/14 02:47:49;;;;;;;7.03;5.85;;;;;;;12.21;68.67;98706.81;5087242;28;20032;-70
2023/04/14 02:50:17;;;;;;;10.00;6.07;;;;;;;11.89;68.98;98675.75;5085911;28;20024;-70
2023/04/14 02:52:46;;;;;;;11.45;6.07;;;;;;;12.18;69.72;98712.56;5086807;28;20467;-70
2023/04/14 02:55:12;;;;;;;13.05;6.88;;;;;;;12.19;69.68;98712.38;5087607;28;20064;-69
2023/04/14 02:57:38;;;;;;;8.57;6.47;;;;;;;12.31;68.80;98710.91;5068899;28;20479;-70
2023/04/14 03:00:05;;;;;;;7.50;5.97;;;;;;;12.31;69.30;98716.28;5087699;28;20028;-69
2023/04/14 03:02:31;;;;;;;9.40;6.38;;;;;;;12.29;69.17;98731.75;5087284;28;20406;-69
2023/04/14 03:04:58;;;;;;;8.38;5.97;;;;;;;12.08;69.30;98703.91;5086764;28;20479;-67
2023/04/14 03:07:26;;;;;;;6.60;5.63;;;;;;;12.21;69.72;98729.16;5086313;28;20059;-67
2023/04/14 03:09:52;;;;;;;7.43;5.95;;;;;;;12.25;69.12;98748.44;5086331;28;20469;-67
2023/04/14 03:12:18;;;;;;;8.82;6.43;;;;;;;12.23;69.41;98737.03;5087233;28;20073;-67
2023/04/14 03:14:44;;;;;;;8.40;5.65;;;;;;;12.10;70.19;98720.72;5084133;28;20078;-70
2023/04/14 03:17:11;;;;;;;9.88;6.35;;;;;;;12.18;70.44;98737.59;5086575;28;20418;-70
2023/04/14 03:19:40;;;;;;;12.65;6.40;;;;;;;12.21;70.14;98741.75;5087095;28;20032;-70
2023/04/14 03:22:07;;;;;;;8.90;6.50;;;;;;;12.18;70.31;98737.59;5086336;28;20081;-70
2023/04/14 03:24:34;;;;;;;10.77;6.78;;;;;;;12.19;70.15;98733.06;5087578;28;20036;-69
2023/04/14 03:27:04;;;;;;;8.80;6.45;;;;;;;12.14;70.67;98714.78;5088919;28;20044;-70
2023/04/14 03:29:35;;;;;;;11.65;6.30;;;;;;;12.08;70.68;98698.53;5090013;28;20035;-70
2023/04/14 03:32:05;;;;;;;9.60;6.05;;;;;;;12.25;70.36;98727.75;5088693;28;20108;-70
2023/04/14 03:34:33;;;;;;;12.70;6.13;;;;;;;12.19;70.45;98717.75;5086821;28;20039;-69
2023/04/14 03:37:00;;;;;;;10.10;6.75;;;;;;;12.18;70.75;98716.09;5091859;28;20110;-70
2023/04/14 03:39:29;;;;;;;9.07;6.40;;;;;;;12.15;70.66;98721.00;5091547;28;20032;-69
2023/04/14 03:41:56;;;;;;;8.93;6.82;;;;;;;12.23;70.62;98726.28;5070849;28;20028;-69
2023/04/14 03:44:25;;;;;;;9.00;6.30;;;;;;;12.15;71.00;98721.00;5088644;28;20032;-70
2023/04/14 03:46:53;;;;;;;9.55;5.97;;;;;;;12.13;71.07;98723.03;5091390;28;20020;-70
2023/04/14 03:49:22;;;;;;;8.32;6.50;;;;;;;12.10;70.97;98726.94;5084077;28;20043;-69
2023/04/14 03:51:52;;;;;;;9.18;6.75;;;;;;;11.88;71.50;98697.41;5067143;28;20028;-69
2023/04/14 03:54:22;;;;;;;8.05;6.55;;;;;;;12.09;71.41;98727.91;5083899;28;20038;-69
2023/04/14 03:56:50;;;;;;;9.15;6.25;;;;;;;12.04;71.52;98721.44;5067312;28;20082;-70
2023/04/14 03:59:19;;;;;;;11.02;6.70;;;;;;;12.06;71.83;98711.34;5067584;28;20114;-70
2023/04/14 04:01:45;;;;;;;8.85;6.57;;;;;;;12.04;72.47;98724.13;5065675;28;20081;-69
2023/04/14 04:04:12;;;;;;;10.43;7.10;;;;;;;12.03;71.83;98728.66;5085235;28;20024;-70
2023/04/14 04:06:39;;;;;;;8.35;6.68;;;;;;;11.88;72.56;98709.00;5067600;28;20032;-70
2023/04/14 04:09:06;;;;;;;8.35;6.82;;;;;;;11.97;72.53;98728.56;5086021;28;20051;-69
2023/04/14 04:11:33;;;;;;;9.75;6.53;;;;;;;11.84;72.94;98705.00;5085414;28;20367;-69
2023/04/14 04:14:02;;;;;;;8.55;6.60;;;;;;;11.96;73.07;98708.91;5085126;28;20396;-69
2023/04/14 04:16:29;;;;;;;13.25;7.82;;;;;;;11.89;73.31;98704.44;5085413;28;20024;-69
2023/04/14 04:18:56;;;;;;;10.10;7.05;;;;;;;11.80;73.26;98689.44;5066766;28;20502;-69
2023/04/14 04:21:26;;;;;;;10.93;7.55;;;;;;;11.88;73.32;98709.00;5085749;28;20059;-69
2023/04/14 04:23:54;;;;;;;9.68;7.05;;;;;;;11.92;73.76;98706.75;5085006;28;20036;-70
2023/04/14 04:26:23;;;;;;;10.02;7.53;;;;;;;11.92;73.75;98701.38;5085640;28;20060;-70
2023/04/14 04:28:49;;;;;;;10.43;6.45;;;;;;;11.75;73.37;98681.06;5084834;28;20043;-70
2023/04/14 04:31:15;;;;;;;9.75;6.88;;;;;;;11.92;74.08;98720.19;5085239;28;20026;-70
2023/04/14 04:33:40;;;;;;;9.90;6.85;;;;;;;11.84;73.77;98698.78;5085202;28;20031;-69
2023/04/14 04:36:06;;;;;;;11.75;7.88;;;;;;;11.84;73.94;98702.31;5085197;28;20028;-70
2023/04/14 04:38:32;;;;;;;11.02;7.22;;;;;;;11.85;73.88;98698.63;5085515;28;20024;-70
2023/04/14 04:40:57;;;;;;;9.00;7.03;;;;;;;11.76;74.13;98698.84;5084032;28;20103;-69
2023/04/14 04:43:23;;;;;;;9.57;6.72;;;;;;;11.97;74.02;98739.31;5084950;28;20058;-69
2023/04/14 04:46:04;;;;;;;12.32;8.65;;;;;;;11.96;73.46;98740.34;5085062;28;20023;-69
2023/04/14 04:48:30;;;;;;;10.27;7.20;;;;;;;11.95;73.54;98746.69;5085660;28;20129;-70
2023/04/14 04:50:55;;;;;;;12.02;7.28;;;;;;;11.96;74.23;98757.25;5085008;28;20036;-69
2023/04/14 04:53:21;;;;;;;9.57;7.50;;;;;;;11.96;74.00;98765.31;5085619;28;20555;-69
2023/04/14 04:55:47;;;;;;;12.27;7.20;;;;;;;11.93;74.05;98767.56;5084546;28;20055;-67
2023/04/14 04:58:12;;;;;;;11.48;7.55;;;;;;;11.96;74.08;98748.41;5085295;28;20044;-67
2023/04/14 05:00:37;;;;;;;12.13;7.72;;;;;;;12.03;73.71;98770.81;5085051;28;20039;-67
2023/04/14 05:03:03;;;;;;;9.27;7.45;;;;;;;11.96;74.42;98768.00;5081141;28;20483;-67
2023/04/14 05:05:28;;;;;;;9.32;7.00;;;;;;;11.97;74.36;98758.13;5084033;28;20028;-68
2023/04/14 05:07:54;;;;;;;11.15;7.25;;;;;;;12.02;74.21;98774.53;5084420;28;20043;-68
2023/04/14 05:10:19;;;;;;;12.18;8.88;;;;;;;12.00;74.58;98768.50;5084744;28;20416;-68
2023/04/14 05:12:45;;;;;;;11.10;7.82;;;;;;;11.86;74.30;98740.56;5082826;28;20028;-68
2023/04/14 05:15:10;;;;;;;15.57;8.23;;;;;;;12.01;75.13;98783.59;5085022;28;20043;-67
2023/04/14 05:17:37;;;;;;;11.00;7.70;;;;;;;11.91;74.73;98765.06;5088275;28;20077;-68
2023/04/14 05:20:04;;;;;;;9.88;7.32;;;;;;;11.80;75.02;98751.22;5084336;28;20890;-67
2023/04/14 05:22:31;;;;;;;11.05;8.43;;;;;;;12.05;74.47;98774.16;5084293;28;20035;-67
2023/04/14 05:24:56;;;;;;;12.60;7.32;;;;;;;11.95;75.56;98762.81;5083897;28;20039;-68
2023/04/14 05:27:22;;;;;;;13.82;9.13;;;;;;;12.05;76.91;98783.06;5084489;28;20035;-68
2023/04/14 05:29:47;;;;;;;16.77;10.05;;;;;;;12.11;77.95;98785.03;5084204;28;20020;-68
2023/04/14 05:32:13;;;;;;;14.20;8.73;;;;;;;12.06;77.68;98775.84;5084073;28;20056;-67
2023/04/14 05:34:39;;;;;;;11.25;8.45;;;;;;;12.11;78.43;98776.09;5081209;28;20036;-67
2023/04/14 05:37:05;;;;;;;10.90;8.05;;;;;;;12.06;78.42;98765.91;5080902;28;20016;-67
2023/04/14 05:39:31;;;;;;;14.25;8.73;;;;;;;12.18;79.11;98769.00;5085394;28;20602;-67
2023/04/14 05:41:58;;;;;;;13.55;8.73;;;;;;;12.08;78.77;98736.16;5083882;28;20471;-68
2023/04/14 05:44:24;;;;;;;13.35;8.40;;;;;;;12.20;79.07;98761.59;5084780;28;20043;-67
2023/04/14 05:46:49;;;;;;;15.32;8.77;;;;;;;12.20;78.46;98753.53;5084346;28;20395;-67
2023/04/14 05:49:15;;;;;;;13.60;9.27;;;;;;;12.22;79.51;98755.00;5067754;28;20032;-68
2023/04/14 05:51:40;;;;;;;14.45;8.60;;;;;;;12.24;77.87;98739.53;5085247;28;20106;-67
2023/04/14 05:54:05;;;;;;;15.38;9.70;;;;;;;12.21;78.22;98731.84;5083749;28;20103;-67
2023/04/14 05:56:31;;;;;;;12.77;9.43;;;;;;;12.37;78.22;98755.03;5081325;28;20028;-67
2023/04/14 05:58:56;;;;;;;11.80;8.38;;;;;;;12.43;77.07;98757.81;5083000;28;20034;-68
2023/04/14 06:01:22;;;;;;;16.67;9.48;;;;;;;12.47;76.22;98752.91;5084467;28;20059;-67
2023/04/14 06:03:47;;;;;;;14.95;8.80;;;;;;;12.43;75.79;98725.56;5082987;28;20030;-67
2023/04/14 06:06:13;;;;;;;17.48;9.38;;;;;;;12.57;75.99;98750.75;5084012;28;20081;-67
2023/04/14 06:08:38;;;;;;;11.93;7.57;;;;;;;12.62;74.62;98738.47;5083453;28;20024;-67
2023/04/14 06:11:04;;;;;;;15.10;8.27;;;;;;;12.72;73.47;98740.84;5083699;28;20088;-67
2023/04/14 06:13:29;;;;;;;11.43;7.78;;;;;;;12.71;72.44;98740.00;5082934;28;20028;-68
2023/04/14 06:15:55;;;;;;;11.02;6.45;;;;;;;12.78;71.80;98742.78;5082996;28;20032;-67
2023/04/14 06:18:21;;;;;;;11.68;6.25;;;;;;;12.78;71.24;98738.25;5079486;28;20479;-67
2023/04/14 06:20:47;;;;;;;10.57;6.22;;;;;;;12.82;71.16;98733.31;5080521;28;20034;-67
2023/04/14 06:23:13;;;;;;;8.18;5.50;;;;;;;12.88;70.56;98729.88;5081420;28;20032;-67
2023/04/14 06:25:38;;;;;;;9.57;6.20;;;;;;;12.92;69.89;98729.31;5068203;28;20040;-67
2023/04/14 06:28:03;;;;;;;10.93;6.65;;;;;;;13.00;69.32;98749.94;5086131;28;20028;-67
2023/04/14 06:30:31;;;;;;;9.90;5.57;;;;;;;12.97;69.38;98740.34;5086299;28;20502;-68
2023/04/14 06:32:57;;;;;;;10.73;5.50;;;;;;;13.05;69.00;98742.13;5086896;28;20694;-67
2023/04/14 06:35:22;;;;;;;7.65;5.65;;;;;;;12.93;69.36;98716.72;5086436;28;20474;-67
2023/04/14 06:37:49;;;;;;;8.73;4.82;;;;;;;13.10;69.42;98739.72;5086452;28;20036;-68
2023/04/14 06:40:15;;;;;;;8.18;5.47;;;;;;;13.12;69.08;98729.59;5087269;28;20063;-68
2023/04/14 06:42:40;;;;;;;8.93;5.07;;;;;;;13.22;69.16;98749.00;5086826;28;20071;-67
2023/04/14 06:45:06;;;;;;;6.85;5.30;;;;;;;13.21;69.11;98734.69;5068177;28;20024;-67
2023/04/14 06:47:32;;;;;;;9.05;5.90;;;;;;;13.28;69.39;98740.97;5086126;28;20024;-67
2023/04/14 06:49:57;;;;;;;5.82;5.20;;;;;;;13.17;69.30;98719.09;5086215;28;20020;-67
2023/04/14 06:52:23;;;;;;;7.13;5.07;;;;;;;13.24;69.63;98723.53;5068014;28;20069;-67
2023/04/14 06:54:48;;;;;;;7.55;5.60;;;;;;;13.36;69.96;98732.78;5086399;28;20391;-67
2023/04/14 06:57:14;;;;;;;9.20;5.57;;;;;;;13.40;70.32;98723.28;5086453;28;20056;-68
2023/04/14 06:59:40;;;;;;;6.10;5.03;;;;;;;13.51;70.14;98738.09;5086388;28;20778;-67
2023/04/14 07:02:06;;;;;;;10.30;5.18;;;;;;;13.53;70.45;98739.59;5086657;28;20039;-67
2023/04/14 07:04:31;;;;;;;8.43;5.50;;;;;;;13.57;69.41;98740.88;5086791;28;20024;-67
2023/04/14 07:07:00;;;;;;;7.80;6.00;;;;;;;13.64;70.21;98730.16;5087090;28;20035;-67
2023/04/14 07:09:27;;;;;;;10.30;5.57;;;;;;;13.69;70.26;98733.09;5068662;28;20085;-68
2023/04/14 07:11:53;;;;;;;10.02;5.63;;;;;;;13.64;69.37;98713.97;5086096;28;20020;-67
2023/04/14 07:14:19;;;;;;;7.60;5.60;;;;;;;13.76;69.25;98715.13;5086819;28;20039;-68
2023/04/14 07:16:44;;;;;;;10.60;6.35;;;;;;;13.85;69.10;98722.06;5086651;28;20012;-68
2023/04/14 07:19:10;;;;;;;8.10;5.40;;;;;;;13.89;68.99;98720.63;5086244;28;20436;-67
2023/04/14 07:21:36;;;;;;;8.00;5.15;;;;;;;13.98;68.97;98716.78;5086154;28;20063;-67
2023/04/14 07:24:03;;;;;;;7.22;5.80;;;;;;;14.05;68.31;98708.72;5084476;28;20030;-67
2023/04/14 07:26:29;;;;;;;7.95;5.43;;;;;;;14.09;68.81;98710.03;5066333;28;20040;-67
2023/04/14 07:28:55;;;;;;;7.07;5.32;;;;;;;14.15;68.61;98712.75;5082487;28;20043;-67
2023/04/14 07:31:21;;;;;;;9.27;5.63;;;;;;;14.23;68.10;98704.56;5085302;28;20032;-67
2023/04/14 07:33:46;;;;;;;9.85;5.25;;;;;;;14.29;67.97;98708.34;5081087;28;20627;-67
2023/04/14 07:36:12;;;;;;;7.97;5.63;;;;;;;14.20;67.76;98698.69;5067796;28;20571;-67
2023/04/14 07:38:37;;;;;;;8.50;6.03;;;;;;;14.14;68.08;98692.22;5084435;28;20376;-68
2023/04/14 07:41:05;;;;;;;10.52;6.03;;;;;;;14.24;68.13;98708.09;5065305;28;20492;-68
2023/04/14 07:43:34;;;;;;;11.02;5.70;;;;;;;14.33;68.00;98723.94;5084187;28;20422;-67
2023/04/14 07:46:03;;;;;;;8.63;5.97;;;;;;;14.18;68.60;98703.47;5087562;28;20035;-68
2023/04/14 07:48:33;;;;;;;8.88;5.07;;;;;;;14.33;68.83;98729.31;5088566;28;20035;-67
2023/04/14 07:50:59;;;;;;;8.32;5.90;;;;;;;14.32;69.29;98734.91;5087120;28;20043;-67
2023/04/14 07:53:25;;;;;;;7.45;5.63;;;;;;;14.29;69.03;98728.06;5069953;28;20036;-68
2023/04/14 07:55:50;;;;;;;11.90;5.93;;;;;;;14.35;69.78;98731.81;5082715;28;20111;-68
2023/04/14 07:58:16;;;;;;;7.78;5.43;;;;;;;14.34;70.38;98719.34;5085853;28;20476;-67
2023/04/14 08:00:42;;;;;;;12.57;6.15;;;;;;;14.29;70.46;98701.09;5085659;28;20641;-67
2023/04/14 08:03:08;;;;;;;7.38;5.70;;;;;;;14.31;70.01;98699.00;5084782;28;20039;-68
2023/04/14 08:05:34;;;;;;;9.65;5.82;;;;;;;14.52;70.09;98731.31;5084294;28;20071;-68
2023/04/14 08:07:59;;;;;;;8.98;5.20;;;;;;;14.47;70.89;98720.28;5085539;28;20048;-67
2023/04/14 08:10:25;;;;;;;9.07;5.80;;;;;;;14.55;71.18;98738.19;5069181;28;20104;-68
2023/04/14 08:12:51;;;;;;;8.45;5.63;;;;;;;14.31;71.52;98699.00;5071345;28;20028;-67
2023/04/14 08:15:17;;;;;;;7.65;5.38;;;;;;;14.39;72.06;98714.22;5085036;28;20032;-68
2023/04/14 08:17:43;;;;;;;9.38;5.95;;;;;;;14.43;73.02;98724.41;5070391;28;20050;-67
2023/04/14 08:20:08;;;;;;;8.38;5.90;;;;;;;14.39;73.12;98723.16;5087544;28;20744;-67
2023/04/14 08:22:34;;;;;;;10.98;6.00;;;;;;;14.51;73.70;98739.63;5090026;28;20103;-67
2023/04/14 08:25:00;;;;;;;7.85;4.95;;;;;;;14.51;74.71;98753.91;5084973;28;20068;-67
2023/04/14 08:27:25;;;;;;;10.73;6.13;;;;;;;14.32;75.77;98727.63;5066974;28;20032;-68
2023/04/14 08:29:51;;;;;;;11.20;6.45;;;;;;;14.52;76.60;98760.16;5086621;28;20035;-67
2023/04/14 08:32:16;;;;;;;8.30;6.88;;;;;;;14.35;78.03;98748.00;5087775;28;20379;-68
2023/04/14 08:34:42;;;;;;;11.18;6.32;;;;;;;14.46;79.57;98769.88;5085763;28;20103;-67
2023/04/14 08:37:07;;;;;;;11.32;7.13;;;;;;;14.32;81.15;98754.59;5087264;28;20950;-67
2023/04/14 08:39:32;;;;;;;9.75;6.40;;;;;;;14.44;82.35;98780.00;5085199;28;20035;-67
2023/04/14 08:41:58;;;;;;;9.68;7.28;;;;;;;14.40;83.41;98769.81;5084594;28;20032;-67
2023/04/14 08:44:24;;;;;;;14.57;7.47;;;;;;;14.41;84.98;98775.00;5085156;28;20079;-66
2023/04/14 08:46:54;;;;;;;9.80;7.00;;;;;;;14.42;85.85;98774.00;5083730;28;20107;-66
2023/04/14 08:49:34;;;;;;;11.73;6.95;;;;;;;14.43;85.80;98781.06;5084055;28;20039;-66
2023/04/14 08:52:02;;;;;;;9.05;6.80;;;;;;;14.44;85.98;98780.00;5084729;28;20059;-66
2023/04/14 08:54:29;;;;;;;10.07;6.35;;;;;;;14.39;86.73;98777.09;5066347;28;20028;-66
2023/04/14 08:56:57;;;;;;;12.00;7.03;;;;;;;14.37;87.26;98773.75;5084830;28;20024;-66
2023/04/14 08:59:23;;;;;;;11.20;7.03;;;;;;;14.23;88.02;98749.56;5084869;28;20032;-66
2023/04/14 09:01:51;;;;;;;10.48;7.18;;;;;;;14.32;88.47;98764.59;5086899;28;20032;-66
2023/04/14 09:04:19;;;;;;;11.15;7.50;;;;;;;14.31;89.85;98761.03;5082049;28;20130;-66
2023/04/14 09:06:44;;;;;;;12.02;8.07;;;;;;;14.27;90.01;98761.63;5069131;28;20123;-66
2023/04/14 09:09:10;;;;;;;12.23;7.05;;;;;;;14.27;90.26;98772.41;5083722;28;20103;-66
2023/04/14 09:11:36;;;;;;;11.38;8.10;;;;;;;14.05;90.75;98738.38;5083949;28;20032;-66
2023/04/14 09:14:03;;;;;;;12.38;7.72;;;;;;;14.21;91.42;98767.75;5084676;28;22004;-66
2023/04/14 09:16:29;;;;;;;11.40;8.00;;;;;;;14.21;91.05;98778.53;5084134;28;20028;-66
2023/04/14 09:18:56;;;;;;;13.05;7.70;;;;;;;14.15;91.40;98760.47;5084068;28;20024;-66
2023/04/14 09:21:22;;;;;;;15.13;8.65;;;;;;;14.17;92.58;98778.13;5087156;28;20448;-66
2023/04/14 09:23:48;;;;;;;10.35;7.55;;;;;;;14.26;92.78;98786.94;5084602;28;20039;-66
2023/04/14 09:26:14;;;;;;;12.27;7.00;;;;;;;14.21;93.41;98781.25;5067638;28;20028;-66
2023/04/14 09:28:40;;;;;;;14.15;7.40;;;;;;;14.21;93.31;98784.78;5085272;28;21684;-66
2023/04/14 09:31:07;;;;;;;10.45;6.88;;;;;;;14.22;92.17;98789.13;5084053;28;20123;-66
2023/04/14 09:33:38;;;;;;;9.13;6.93;;;;;;;14.22;91.39;98786.44;5083873;28;20024;-66
2023/04/14 09:36:04;;;;;;;13.40;6.63;;;;;;;14.12;90.79;98783.25;5065337;28;20078;-69
2023/04/14 09:38:35;;;;;;;13.25;7.15;;;;;;;14.15;91.86;98807.13;5084283;28;20550;-69
2023/04/14 09:41:01;;;;;;;12.93;7.80;;;;;;;14.06;92.38;98783.22;5083420;28;20123;-69
2023/04/14 09:43:28;;;;;;;16.10;8.93;;;;;;;14.10;93.90;98797.97;5065958;28;20038;-69
2023/04/14 09:45:55;;;;;;;20.80;8.23;;;;;;;14.07;94.40;98792.94;5065335;28;20035;-69
2023/04/14 09:48:21;;;;;;;11.23;7.75;;;;;;;13.79;95.11;98771.34;5084395;28;20032;-69
2023/04/14 09:51:08;;;;;;;15.00;8.15;;;;;;;13.94;96.42;98798.22;5086996;28;20068;-69
2023/04/14 09:53:36;;;;;;;11.73;8.50;;;;;;;13.93;98.23;98797.38;5085396;28;20067;-69
2023/04/14 09:56:07;;;;;;;14.80;8.05;;;;;;;13.92;98.99;98793.03;5086509;28;20038;-69
2023/04/14 09:58:37;;;;;;;13.02;8.15;;;;;;;13.89;98.64;98789.91;5064335;28;20039;-69
2023/04/14 10:01:05;;;;;;;14.13;9.38;;;;;;;13.72;99.03;98770.44;5087839;28;20060;-69
2023/04/14 10:03:41;;;;;;;12.65;8.55;;;;;;;13.79;99.80;98779.41;5087968;28;20852;-69
2023/04/14 10:06:09;;;;;;;12.38;9.15;;;;;;;13.86;99.33;98783.00;5088218;28;20110;-69
2023/04/14 10:08:37;;;;;;;14.85;9.00;;;;;;;13.86;100.00;98784.88;5090057;28;20497;-69
2023/04/14 10:11:31;;;;;;;15.30;9.15;;;;;;;13.88;99.88;98788.19;5084283;28;20077;-69
2023/04/14 10:14:02;;;;;;;14.93;8.70;;;;;;;13.89;100.00;98779.13;5084871;28;20028;-68
2023/04/14 10:16:28;;;;;;;13.43;8.07;;;;;;;13.84;100.00;98770.75;5087533;28;20038;-68
2023/04/14 10:18:54;;;;;;;12.05;7.22;;;;;;;13.83;100.00;98772.59;5087251;28;20031;-68
2023/04/14 10:21:23;;;;;;;13.63;7.63;;;;;;;13.84;100.00;98760.81;5085500;28;20039;-66
2023/04/14 10:23:49;;;;;;;13.43;7.30;;;;;;;13.81;100.00;98769.28;5087278;28;20031;-66
2023/04/14 10:26:16;;;;;;;14.98;7.70;;;;;;;13.81;100.00;98765.75;5069003;28;20024;-65
2023/04/14 10:28:46;;;;;;;14.23;7.50;;;;;;;13.78;100.00;98775.06;5085763;28;20032;-66
2023/04/14 10:31:29;;;;;;;15.43;7.63;;;;;;;13.78;100.00;98777.75;5089208;28;20044;-66
2023/04/14 10:33:54;;;;;;;11.85;6.82;;;;;;;13.62;100.00;98754.59;5066136;28;20109;-66
2023/04/14 10:36:24;;;;;;;11.80;7.20;;;;;;;13.74;100.00;98771.09;5086104;28;20027;-66
2023/04/14 10:38:57;;;;;;;14.02;6.90;;;;;;;13.73;100.00;98768.59;5083939;28;20039;-66
2023/04/14 10:41:23;;;;;;;8.77;6.38;;;;;;;13.71;100.00;98772.28;5086195;28;20376;-66
2023/04/14 10:43:48;;;;;;;9.00;6.28;;;;;;;13.73;100.00;98768.59;5085192;28;20023;-66
2023/04/14 10:46:14;;;;;;;10.70;6.68;;;;;;;13.61;100.00;98765.56;5085614;28;20540;-66
2023/04/14 10:48:40;;;;;;;11.60;6.50;;;;;;;13.57;100.00;98773.19;5068545;28;20036;-66
2023/04/14 10:51:09;;;;;;;8.43;5.75;;;;;;;13.41;100.00;98754.56;5086100;28;20051;-66
2023/04/14 10:53:54;;;;;;;11.82;6.30;;;;;;;13.48;100.00;98773.53;5084683;28;20015;-65
2023/04/14 10:56:22;;;;;;;10.27;6.10;;;;;;;13.44;100.00;98778.44;5085737;28;20031;-66
2023/04/14 10:58:56;;;;;;;9.35;5.95;;;;;;;13.43;100.00;98789.41;5086836;28;20525;-66
2023/04/14 11:01:30;;;;;;;10.43;6.35;;;;;;;13.44;100.00;98778.44;5086569;28;20032;-66
2023/04/14 11:03:57;;;;;;;10.85;6.55;;;;;;;13.41;100.00;98791.44;5083159;28;20035;-66
2023/04/14 11:06:49;;;;;;;8.77;6.20;;;;;;;13.34;100.00;98795.91;5079886;28;20074;-66
2023/04/14 11:09:26;;;;;;;8.32;6.65;;;;;;;13.23;100.00;98789.16;5081260;28;20040;-66
2023/04/14 11:11:55;;;;;;;7.70;6.15;;;;;;;13.21;100.00;98806.53;5083929;28;20020;-66
2023/04/14 11:14:29;;;;;;;11.88;6.32;;;;;;;13.14;100.00;98811.00;5085317;28;20048;-69
2023/04/14 11:17:01;;;;;;;;;;;;;;;13.08;100.00;98806.34;5086304;28;20379;-69
2023/04/14 11:19:27;;;;;;;12.02;5.72;;;;;;;13.10;100.00;98807.00;5085405;28;19919;-69
2023/04/14 11:21:53;;;;;;;10.07;5.45;;;;;;;13.00;100.00;98803.78;5079769;28;20483;-68
2023/04/14 11:24:23;;;;;;;7.72;6.25;;;;;;;13.01;100.00;98825.13;5083141;28;20038;-68
2023/04/14 11:26:52;;;;;;;7.93;6.88;;;;;;;12.97;100.00;98831.03;5083452;28;20070;-68
2023/04/14 11:29:18;;;;;;;7.82;6.60;;;;;;;12.87;100.00;98817.84;5085511;28;20028;-69
2023/04/14 11:31:44;;;;;;;8.88;6.05;;;;;;;12.92;100.00;98842.34;5085052;28;20077;-69